Tosno, Russia
Current Conditions -  °F | °C
As of 8:30 PM on Friday 24 Oct 2014 (Local Time) from ULLI Reporting Station
Clear Clear  
Wind Chill: 21°   Ceiling: Unl
Heat Index: 28°   Visibility: 6mi
Dew Point: 23°   Wind: 7mph
Humidity: 80%   Direction: 150°SSE
Pressure: 30.59"   Gusts: NA
Location:  59.55°N, 30.88°E
Report Text: ULLI 241730Z 15003MPS 120V190 CAVOK M02/M05 Q1036 6019004510////// NOSIG
Loading
Personal Weather Stations






























Interactive Weather Map
Tropical Storm Tracking
New forecast layout! Learn more

10-Day Weather Forecast

Advertisements
Track Severe Weather on mobile